sensor_id;sensor_type;location;lat;lon;timestamp;P1;durP1;ratioP1;P2;durP2;ratioP2
1957;SDS011;979;51.076;13.748;2022-12-07T00:01:28;19.83;;;18.43;;
1957;SDS011;979;51.076;13.748;2022-12-07T00:04:17;15.40;;;15.00;;
1957;SDS011;979;51.076;13.748;2022-12-07T00:07:02;15.60;;;15.20;;
1957;SDS011;979;51.076;13.748;2022-12-07T00:09:53;16.63;;;16.23;;
1957;SDS011;979;51.076;13.748;2022-12-07T00:12:24;16.60;;;16.20;;
1957;SDS011;979;51.076;13.748;2022-12-07T00:15:09;16.10;;;15.70;;
1957;SDS011;979;51.076;13.748;2022-12-07T00:17:57;17.63;;;17.13;;
1957;SDS011;979;51.076;13.748;2022-12-07T00:20:50;18.37;;;17.80;;
1957;SDS011;979;51.076;13.748;2022-12-07T00:26:45;16.40;;;16.00;;
1957;SDS011;979;51.076;13.748;2022-12-07T00:29:40;16.73;;;16.23;;
1957;SDS011;979;51.076;13.748;2022-12-07T00:32:30;16.23;;;15.80;;
1957;SDS011;979;51.076;13.748;2022-12-07T00:35:28;15.50;;;15.10;;
1957;SDS011;979;51.076;13.748;2022-12-07T00:38:09;17.03;;;16.53;;
1957;SDS011;979;51.076;13.748;2022-12-07T00:40:55;17.20;;;16.70;;
1957;SDS011;979;51.076;13.748;2022-12-07T00:44:00;16.20;;;15.80;;
1957;SDS011;979;51.076;13.748;2022-12-07T00:46:45;16.17;;;15.67;;
1957;SDS011;979;51.076;13.748;2022-12-07T00:49:31;16.60;;;16.20;;
1957;SDS011;979;51.076;13.748;2022-12-07T00:52:37;16.43;;;16.03;;
1957;SDS011;979;51.076;13.748;2022-12-07T00:55:52;16.80;;;16.40;;
1957;SDS011;979;51.076;13.748;2022-12-07T00:58:57;16.80;;;16.40;;
1957;SDS011;979;51.076;13.748;2022-12-07T01:01:57;16.97;;;16.57;;
1957;SDS011;979;51.076;13.748;2022-12-07T01:04:45;17.60;;;17.10;;
1957;SDS011;979;51.076;13.748;2022-12-07T01:07:24;17.47;;;16.97;;
1957;SDS011;979;51.076;13.748;2022-12-07T01:10:06;16.93;;;16.43;;
1957;SDS011;979;51.076;13.748;2022-12-07T01:12:44;16.40;;;16.00;;
1957;SDS011;979;51.076;13.748;2022-12-07T01:15:21;18.37;;;17.87;;
1957;SDS011;979;51.076;13.748;2022-12-07T01:18:17;17.00;;;16.50;;
1957;SDS011;979;51.076;13.748;2022-12-07T01:21:24;17.00;;;16.50;;
1957;SDS011;979;51.076;13.748;2022-12-07T01:24:20;17.57;;;16.97;;
1957;SDS011;979;51.076;13.748;2022-12-07T01:26:58;17.20;;;16.70;;
1957;SDS011;979;51.076;13.748;2022-12-07T01:29:46;18.13;;;17.63;;
1957;SDS011;979;51.076;13.748;2022-12-07T01:32:52;17.10;;;16.60;;
1957;SDS011;979;51.076;13.748;2022-12-07T01:35:28;16.97;;;16.47;;
1957;SDS011;979;51.076;13.748;2022-12-07T01:38:12;17.73;;;17.03;;
1957;SDS011;979;51.076;13.748;2022-12-07T01:40:57;18.30;;;17.70;;
1957;SDS011;979;51.076;13.748;2022-12-07T01:44:18;16.77;;;16.37;;
1957;SDS011;979;51.076;13.748;2022-12-07T01:47:00;16.10;;;15.70;;
1957;SDS011;979;51.076;13.748;2022-12-07T01:53:17;15.90;;;15.50;;
1957;SDS011;979;51.076;13.748;2022-12-07T01:56:09;16.33;;;15.93;;
1957;SDS011;979;51.076;13.748;2022-12-07T01:58:52;16.90;;;16.50;;
1957;SDS011;979;51.076;13.748;2022-12-07T02:01:48;16.30;;;15.90;;
1957;SDS011;979;51.076;13.748;2022-12-07T02:04:35;16.70;;;16.30;;
1957;SDS011;979;51.076;13.748;2022-12-07T02:07:21;19.07;;;18.40;;
1957;SDS011;979;51.076;13.748;2022-12-07T02:10:31;15.87;;;15.47;;
1957;SDS011;979;51.076;13.748;2022-12-07T02:13:24;16.30;;;15.90;;
1957;SDS011;979;51.076;13.748;2022-12-07T02:16:13;17.10;;;16.60;;
1957;SDS011;979;51.076;13.748;2022-12-07T02:29:49;16.10;;;15.70;;
1957;SDS011;979;51.076;13.748;2022-12-07T02:32:48;15.90;;;15.50;;
1957;SDS011;979;51.076;13.748;2022-12-07T02:35:39;16.07;;;15.67;;
1957;SDS011;979;51.076;13.748;2022-12-07T02:38:26;15.83;;;15.43;;
1957;SDS011;979;51.076;13.748;2022-12-07T02:41:23;15.30;;;14.90;;
1957;SDS011;979;51.076;13.748;2022-12-07T02:44:12;15.50;;;15.10;;
1957;SDS011;979;51.076;13.748;2022-12-07T02:49:56;16.20;;;15.80;;
1957;SDS011;979;51.076;13.748;2022-12-07T02:52:47;15.50;;;15.10;;
1957;SDS011;979;51.076;13.748;2022-12-07T02:55:25;15.73;;;15.33;;
1957;SDS011;979;51.076;13.748;2022-12-07T02:58:10;14.90;;;14.60;;
1957;SDS011;979;51.076;13.748;2022-12-07T03:01:04;15.70;;;15.30;;
1957;SDS011;979;51.076;13.748;2022-12-07T03:03:57;17.03;;;16.57;;
1957;SDS011;979;51.076;13.748;2022-12-07T03:06:43;14.97;;;14.67;;
1957;SDS011;979;51.076;13.748;2022-12-07T03:09:37;15.17;;;14.77;;
1957;SDS011;979;51.076;13.748;2022-12-07T03:12:15;15.10;;;14.70;;
1957;SDS011;979;51.076;13.748;2022-12-07T03:14:58;15.17;;;14.77;;
1957;SDS011;979;51.076;13.748;2022-12-07T03:17:48;15.00;;;14.70;;
1957;SDS011;979;51.076;13.748;2022-12-07T03:20:37;17.37;;;16.57;;
1957;SDS011;979;51.076;13.748;2022-12-07T03:23:24;16.00;;;15.60;;
1957;SDS011;979;51.076;13.748;2022-12-07T03:26:13;16.80;;;16.40;;
1957;SDS011;979;51.076;13.748;2022-12-07T03:28:54;16.67;;;16.27;;
1957;SDS011;979;51.076;13.748;2022-12-07T03:31:34;16.97;;;16.57;;
1957;SDS011;979;51.076;13.748;2022-12-07T03:34:21;17.60;;;17.20;;
1957;SDS011;979;51.076;13.748;2022-12-07T03:37:10;16.10;;;15.70;;
1957;SDS011;979;51.076;13.748;2022-12-07T03:40:04;15.80;;;15.40;;
1957;SDS011;979;51.076;13.748;2022-12-07T03:42:50;16.87;;;16.47;;
1957;SDS011;979;51.076;13.748;2022-12-07T03:45:40;16.10;;;15.70;;
1957;SDS011;979;51.076;13.748;2022-12-07T03:48:26;16.90;;;16.50;;
1957;SDS011;979;51.076;13.748;2022-12-07T03:51:21;16.10;;;15.70;;
1957;SDS011;979;51.076;13.748;2022-12-07T03:54:13;16.93;;;16.53;;
1957;SDS011;979;51.076;13.748;2022-12-07T03:56:56;16.80;;;16.40;;
1957;SDS011;979;51.076;13.748;2022-12-07T03:59:55;15.53;;;15.13;;
1957;SDS011;979;51.076;13.748;2022-12-07T04:02:37;16.00;;;15.60;;
1957;SDS011;979;51.076;13.748;2022-12-07T04:05:14;15.57;;;15.17;;
1957;SDS011;979;51.076;13.748;2022-12-07T04:07:54;16.17;;;15.77;;
1957;SDS011;979;51.076;13.748;2022-12-07T04:10:43;15.90;;;15.50;;
1957;SDS011;979;51.076;13.748;2022-12-07T04:13:41;16.20;;;15.80;;
1957;SDS011;979;51.076;13.748;2022-12-07T04:16:30;15.90;;;15.50;;
1957;SDS011;979;51.076;13.748;2022-12-07T04:19:08;18.20;;;17.40;;
1957;SDS011;979;51.076;13.748;2022-12-07T04:21:47;15.60;;;15.20;;
1957;SDS011;979;51.076;13.748;2022-12-07T04:24:44;15.93;;;15.53;;
1957;SDS011;979;51.076;13.748;2022-12-07T04:27:22;16.40;;;16.00;;
1957;SDS011;979;51.076;13.748;2022-12-07T04:30:13;18.90;;;18.30;;
1957;SDS011;979;51.076;13.748;2022-12-07T04:32:50;16.30;;;15.90;;
1957;SDS011;979;51.076;13.748;2022-12-07T04:35:25;16.67;;;16.27;;
1957;SDS011;979;51.076;13.748;2022-12-07T04:38:19;15.80;;;15.40;;
1957;SDS011;979;51.076;13.748;2022-12-07T04:41:13;16.30;;;15.90;;
1957;SDS011;979;51.076;13.748;2022-12-07T04:44:03;16.30;;;15.90;;
1957;SDS011;979;51.076;13.748;2022-12-07T04:46:55;16.00;;;15.60;;
1957;SDS011;979;51.076;13.748;2022-12-07T04:49:42;15.23;;;14.90;;
1957;SDS011;979;51.076;13.748;2022-12-07T04:52:24;16.40;;;16.00;;
1957;SDS011;979;51.076;13.748;2022-12-07T04:54:54;16.90;;;16.50;;
1957;SDS011;979;51.076;13.748;2022-12-07T04:57:32;17.10;;;16.70;;
1957;SDS011;979;51.076;13.748;2022-12-07T05:00:45;16.70;;;16.30;;
1957;SDS011;979;51.076;13.748;2022-12-07T05:03:53;16.70;;;16.30;;
1957;SDS011;979;51.076;13.748;2022-12-07T05:06:50;16.20;;;15.80;;
1957;SDS011;979;51.076;13.748;2022-12-07T05:10:02;15.90;;;15.50;;
1957;SDS011;979;51.076;13.748;2022-12-07T05:12:54;16.20;;;15.80;;
1957;SDS011;979;51.076;13.748;2022-12-07T05:15:49;15.00;;;14.70;;
1957;SDS011;979;51.076;13.748;2022-12-07T05:18:33;15.50;;;15.10;;
1957;SDS011;979;51.076;13.748;2022-12-07T05:21:12;16.03;;;15.63;;
1957;SDS011;979;51.076;13.748;2022-12-07T05:23:55;14.90;;;14.60;;
1957;SDS011;979;51.076;13.748;2022-12-07T05:26:36;16.30;;;15.83;;
1957;SDS011;979;51.076;13.748;2022-12-07T05:29:27;14.50;;;14.20;;
1957;SDS011;979;51.076;13.748;2022-12-07T05:32:11;15.07;;;14.67;;
1957;SDS011;979;51.076;13.748;2022-12-07T05:35:21;14.13;;;13.83;;
1957;SDS011;979;51.076;13.748;2022-12-07T05:38:36;14.50;;;14.20;;
1957;SDS011;979;51.076;13.748;2022-12-07T05:41:13;14.30;;;14.00;;
1957;SDS011;979;51.076;13.748;2022-12-07T05:44:03;14.40;;;14.10;;
1957;SDS011;979;51.076;13.748;2022-12-07T05:46:54;14.80;;;14.50;;
1957;SDS011;979;51.076;13.748;2022-12-07T05:49:37;14.00;;;13.70;;
1957;SDS011;979;51.076;13.748;2022-12-07T05:52:25;15.13;;;14.77;;
1957;SDS011;979;51.076;13.748;2022-12-07T05:55:10;14.57;;;14.27;;
1957;SDS011;979;51.076;13.748;2022-12-07T05:57:58;14.40;;;14.10;;
1957;SDS011;979;51.076;13.748;2022-12-07T06:01:02;15.33;;;14.83;;
1957;SDS011;979;51.076;13.748;2022-12-07T06:03:59;20.10;;;18.90;;
1957;SDS011;979;51.076;13.748;2022-12-07T06:06:59;26.83;;;24.20;;
1957;SDS011;979;51.076;13.748;2022-12-07T06:09:43;20.00;;;18.40;;
1957;SDS011;979;51.076;13.748;2022-12-07T06:12:52;20.77;;;19.47;;
1957;SDS011;979;51.076;13.748;2022-12-07T06:21:41;22.70;;;21.27;;
1957;SDS011;979;51.076;13.748;2022-12-07T06:24:34;25.10;;;23.33;;
1957;SDS011;979;51.076;13.748;2022-12-07T06:27:34;19.20;;;18.17;;
1957;SDS011;979;51.076;13.748;2022-12-07T06:30:21;20.97;;;19.57;;
1957;SDS011;979;51.076;13.748;2022-12-07T06:32:58;19.20;;;18.10;;
1957;SDS011;979;51.076;13.748;2022-12-07T06:35:55;19.57;;;18.17;;
1957;SDS011;979;51.076;13.748;2022-12-07T06:38:39;19.30;;;18.30;;
1957;SDS011;979;51.076;13.748;2022-12-07T06:41:20;17.63;;;16.77;;
1957;SDS011;979;51.076;13.748;2022-12-07T06:44:03;19.03;;;17.93;;
1957;SDS011;979;51.076;13.748;2022-12-07T06:46:42;19.00;;;18.10;;
1957;SDS011;979;51.076;13.748;2022-12-07T06:50:30;16.70;;;16.00;;
1957;SDS011;979;51.076;13.748;2022-12-07T06:53:04;16.53;;;15.73;;
1957;SDS011;979;51.076;13.748;2022-12-07T06:56:09;18.10;;;17.10;;
1957;SDS011;979;51.076;13.748;2022-12-07T06:58:50;17.47;;;16.73;;
1957;SDS011;979;51.076;13.748;2022-12-07T07:04:37;18.33;;;17.43;;
1957;SDS011;979;51.076;13.748;2022-12-07T07:07:16;17.60;;;16.90;;
1957;SDS011;979;51.076;13.748;2022-12-07T07:10:02;18.80;;;17.70;;
1957;SDS011;979;51.076;13.748;2022-12-07T07:13:11;20.00;;;18.63;;
1957;SDS011;979;51.076;13.748;2022-12-07T07:16:05;19.00;;;17.90;;
1957;SDS011;979;51.076;13.748;2022-12-07T07:18:56;19.83;;;18.70;;
1957;SDS011;979;51.076;13.748;2022-12-07T07:21:36;16.53;;;16.03;;
1957;SDS011;979;51.076;13.748;2022-12-07T07:24:25;19.63;;;18.63;;
1957;SDS011;979;51.076;13.748;2022-12-07T07:27:21;21.40;;;20.20;;
1957;SDS011;979;51.076;13.748;2022-12-07T07:30:02;19.40;;;18.47;;
1957;SDS011;979;51.076;13.748;2022-12-07T07:32:37;21.17;;;19.73;;
1957;SDS011;979;51.076;13.748;2022-12-07T07:35:28;19.80;;;18.90;;
1957;SDS011;979;51.076;13.748;2022-12-07T07:38:14;22.37;;;20.97;;
1957;SDS011;979;51.076;13.748;2022-12-07T07:40:56;18.60;;;17.70;;
1957;SDS011;979;51.076;13.748;2022-12-07T07:43:37;20.90;;;19.80;;
1957;SDS011;979;51.076;13.748;2022-12-07T07:46:12;19.30;;;18.50;;
1957;SDS011;979;51.076;13.748;2022-12-07T07:48:58;18.40;;;17.80;;
1957;SDS011;979;51.076;13.748;2022-12-07T07:51:46;19.87;;;18.97;;
1957;SDS011;979;51.076;13.748;2022-12-07T07:54:29;20.40;;;19.30;;
1957;SDS011;979;51.076;13.748;2022-12-07T07:57:18;19.67;;;18.57;;
1957;SDS011;979;51.076;13.748;2022-12-07T07:59:55;18.10;;;17.40;;
1957;SDS011;979;51.076;13.748;2022-12-07T08:02:39;24.10;;;22.17;;
1957;SDS011;979;51.076;13.748;2022-12-07T08:05:36;19.83;;;18.73;;
1957;SDS011;979;51.076;13.748;2022-12-07T08:08:35;21.20;;;20.00;;
1957;SDS011;979;51.076;13.748;2022-12-07T08:11:26;20.37;;;19.30;;
1957;SDS011;979;51.076;13.748;2022-12-07T08:14:09;21.93;;;20.63;;
1957;SDS011;979;51.076;13.748;2022-12-07T08:16:49;20.73;;;19.50;;
1957;SDS011;979;51.076;13.748;2022-12-07T08:23:53;20.47;;;19.30;;
1957;SDS011;979;51.076;13.748;2022-12-07T08:27:00;20.93;;;19.87;;
1957;SDS011;979;51.076;13.748;2022-12-07T08:29:38;19.13;;;18.20;;
1957;SDS011;979;51.076;13.748;2022-12-07T08:32:14;20.87;;;19.37;;
1957;SDS011;979;51.076;13.748;2022-12-07T08:35:00;21.33;;;20.03;;
1957;SDS011;979;51.076;13.748;2022-12-07T08:37:48;21.90;;;20.60;;
1957;SDS011;979;51.076;13.748;2022-12-07T08:40:55;21.83;;;20.73;;
1957;SDS011;979;51.076;13.748;2022-12-07T08:44:20;20.77;;;19.37;;
1957;SDS011;979;51.076;13.748;2022-12-07T08:47:16;20.33;;;19.23;;
1957;SDS011;979;51.076;13.748;2022-12-07T08:50:11;21.30;;;20.17;;
1957;SDS011;979;51.076;13.748;2022-12-07T08:56:21;20.70;;;19.30;;
1957;SDS011;979;51.076;13.748;2022-12-07T08:59:18;22.23;;;20.90;;
1957;SDS011;979;51.076;13.748;2022-12-07T09:01:59;20.80;;;19.37;;
1957;SDS011;979;51.076;13.748;2022-12-07T09:04:32;19.37;;;18.27;;
1957;SDS011;979;51.076;13.748;2022-12-07T09:07:14;20.17;;;18.87;;
1957;SDS011;979;51.076;13.748;2022-12-07T12:41:54;22.47;;;20.73;;
1957;SDS011;979;51.076;13.748;2022-12-07T13:05:25;23.17;;;22.23;;
1957;SDS011;979;51.076;13.748;2022-12-07T13:08:40;40.97;;;39.03;;
1957;SDS011;979;51.076;13.748;2022-12-07T13:11:25;29.93;;;28.73;;
